Alpine, TX

8:10 AM CST on March 06, 2015 (GMT -0600)
Thomas, Ave. A & N. Cockrell | Change Station
CLOSE
Current Station
Personal Weather Station
Location: Alpine, TX
Elevation: 4485 ft
Nearby Weather Stations

Elev 4485 ft 30.36 °N, 103.66 °W | Updated 45 seconds ago

Clear
Clear
26.4 °F
Feels Like 26 °F
N
0.0
Wind Variable Wind from SW
Gusts 0.0 mph

Today
High -- | Low -- °F
--% Chance of Precip.
Yesterday
High -- | Low -- °F
Precip. -- in
7:15 AM 6:56 PM
Full, 99% visible
Pressure 30.44 in
Visibility 10.0 miles
Clouds Clear
Windchill 26 °F
Dew Point 26 °F
Humidity 97%
Rainfall in
Snow Depth Not available.
UV 1.0 out of 12
Pollen 5.90 out of 12
Air Quality Not available.
Flu Activity Not available.
METAR KE38 061355Z AUTO 23006KT 10SM CLR 00/M03 A3044 RMK AO2 T00041026

More Conditions Fewer Conditions

Pressure 30.44 in
Visibility 10.0 miles
Clouds Clear
Windchill 26 °F
Dew Point 26 °F
Humidity 97%
Rainfall in
Snow Depth Not available.
UV 1.0 out of 12
Pollen 5.90 out of 12
Air Quality Not available.
Flu Activity Not available.
METAR KE38 061355Z AUTO 23006KT 10SM CLR 00/M03 A3044 RMK AO2 T00041026

More Conditions Fewer Conditions

10-Day Weather Forecast

Almanac

Astronomy

Mar. 06, 2015 Rise Set
Actual Time
Civil Twilight
Nautical Twilight
Astronomical Twilight
Moon
Length of Visible Light
Length of Day
Tomorrow will be .
, % of the Moon is Illuminated

Today's Extremes

State Highs State Lows

Community

WunderPhotos

Upload Photos

1,803,275 photos uploaded!

WunderBlogs® & News

Nearby

Air Quality

  Air Quality AQ Index Pollutant
Not available.

Snow Depth

Station Depth Elevation

Earthquake Activity

City Distance Mag. Time & Date
Minimum magnitude displayed is 2.5.

Coastal Water Temperatures

Place Temperature

Nearby Weather Stations